Login to view products. 
Tuesday, February 28, 2017 (00:58 UTC)
Abu Dhabi International Airport
Last Updated: 28-Feb-2017 (00:58Z)
Wind Dir/Speed: SSE at 04 kt
Temperature: 15.3°C
Rel. Humidity: 85 %
Pressure: 1018.0 hPa
Visibility: 7000 m
ACTUALS
  • METAR OMAA 280100Z 19004KT 7000 SCT025 16/13 Q1017 BECMG 4000 HZ
  • TAF OMAA 272300Z 2800/0106 17004KT 8000 SCT025 PROB30 TEMPO 2802/2805 0200 FG VV001 BECMG 2805/2807 32012KT PROB30 TEMPO 0101/0105 VRB02KT 0200 FG VV///=